sensor_id;sensor_type;location;lat;lon;timestamp;pressure;altitude;pressure_sealevel;temperature;humidity
12172;BME280;6149;52.418;13.668;2023-02-21T00:02:44;100710.84;;;9.03;100.00
12172;BME280;6149;52.418;13.668;2023-02-21T00:05:29;100706.38;;;9.05;100.00
12172;BME280;6149;52.418;13.668;2023-02-21T00:08:13;100705.72;;;9.00;100.00
12172;BME280;6149;52.418;13.668;2023-02-21T00:10:57;100699.78;;;8.95;100.00
12172;BME280;6149;52.418;13.668;2023-02-21T00:13:41;100701.69;;;8.91;100.00
12172;BME280;6149;52.418;13.668;2023-02-21T00:16:25;100694.44;;;8.96;100.00
12172;BME280;6149;52.418;13.668;2023-02-21T00:19:11;100698.84;;;8.96;100.00
12172;BME280;6149;52.418;13.668;2023-02-21T00:21:55;100694.63;;;8.92;100.00
12172;BME280;6149;52.418;13.668;2023-02-21T00:24:39;100694.88;;;8.87;100.00
12172;BME280;6149;52.418;13.668;2023-02-21T00:27:24;100697.72;;;8.83;100.00
12172;BME280;6149;52.418;13.668;2023-02-21T00:30:09;100699.75;;;8.76;100.00
12172;BME280;6149;52.418;13.668;2023-02-21T00:32:54;100692.72;;;8.77;100.00
12172;BME280;6149;52.418;13.668;2023-02-21T00:35:40;100682.09;;;8.78;100.00
12172;BME280;6149;52.418;13.668;2023-02-21T00:38:24;100683.53;;;8.85;100.00
12172;BME280;6149;52.418;13.668;2023-02-21T00:41:08;100690.53;;;8.86;100.00
12172;BME280;6149;52.418;13.668;2023-02-21T00:43:52;100690.94;;;8.77;100.00
12172;BME280;6149;52.418;13.668;2023-02-21T00:46:37;100689.28;;;8.75;100.00
12172;BME280;6149;52.418;13.668;2023-02-21T00:49:21;100692.78;;;8.75;100.00
12172;BME280;6149;52.418;13.668;2023-02-21T00:52:06;100689.28;;;8.75;100.00
12172;BME280;6149;52.418;13.668;2023-02-21T00:54:50;100680.31;;;8.79;100.00
12172;BME280;6149;52.418;13.668;2023-02-21T00:57:34;100686.44;;;8.79;100.00
12172;BME280;6149;52.418;13.668;2023-02-21T01:00:21;100681.16;;;8.79;100.00
12172;BME280;6149;52.418;13.668;2023-02-21T01:03:07;100670.75;;;8.76;100.00
12172;BME280;6149;52.418;13.668;2023-02-21T01:05:53;100685.00;;;8.72;100.00
12172;BME280;6149;52.418;13.668;2023-02-21T01:08:41;100675.25;;;8.74;100.00
12172;BME280;6149;52.418;13.668;2023-02-21T01:11:26;100672.47;;;8.77;100.00
12172;BME280;6149;52.418;13.668;2023-02-21T01:14:10;100670.75;;;8.76;100.00
12172;BME280;6149;52.418;13.668;2023-02-21T01:16:54;100662.59;;;8.82;100.00
12172;BME280;6149;52.418;13.668;2023-02-21T01:19:39;100676.16;;;8.73;100.00
12172;BME280;6149;52.418;13.668;2023-02-21T01:22:24;100650.25;;;8.83;100.00
12172;BME280;6149;52.418;13.668;2023-02-21T01:25:09;100674.19;;;8.78;100.00
12172;BME280;6149;52.418;13.668;2023-02-21T01:27:54;100657.56;;;8.76;100.00
12172;BME280;6149;52.418;13.668;2023-02-21T01:30:38;100656.59;;;8.79;100.00
12172;BME280;6149;52.418;13.668;2023-02-21T01:33:22;100653.09;;;8.78;100.00
12172;BME280;6149;52.418;13.668;2023-02-21T01:36:08;100646.63;;;8.85;100.00
12172;BME280;6149;52.418;13.668;2023-02-21T01:38:52;100653.94;;;8.79;100.00
12172;BME280;6149;52.418;13.668;2023-02-21T01:41:38;100649.25;;;8.85;100.00
12172;BME280;6149;52.418;13.668;2023-02-21T01:44:33;100647.34;;;8.89;100.00
12172;BME280;6149;52.418;13.668;2023-02-21T01:47:19;100655.38;;;8.86;100.00
12172;BME280;6149;52.418;13.668;2023-02-21T01:50:08;100648.28;;;8.88;100.00
12172;BME280;6149;52.418;13.668;2023-02-21T01:52:56;100653.47;;;8.89;100.00
12172;BME280;6149;52.418;13.668;2023-02-21T01:55:41;100664.03;;;8.89;100.00
12172;BME280;6149;52.418;13.668;2023-02-21T01:58:29;100639.50;;;8.87;100.00
12172;BME280;6149;52.418;13.668;2023-02-21T02:01:24;100645.25;;;8.95;100.00
12172;BME280;6149;52.418;13.668;2023-02-21T02:04:15;100628.66;;;8.93;100.00
12172;BME280;6149;52.418;13.668;2023-02-21T02:06:59;100627.66;;;8.96;100.00
12172;BME280;6149;52.418;13.668;2023-02-21T02:09:43;100623.38;;;8.93;100.00
12172;BME280;6149;52.418;13.668;2023-02-21T02:12:56;100620.91;;;8.90;100.00
12172;BME280;6149;52.418;13.668;2023-02-21T02:15:42;100632.06;;;8.95;100.00
12172;BME280;6149;52.418;13.668;2023-02-21T02:18:25;100631.00;;;8.99;100.00
12172;BME280;6149;52.418;13.668;2023-02-21T02:21:24;100631.66;;;9.04;100.00
12172;BME280;6149;52.418;13.668;2023-02-21T02:24:37;100631.00;;;8.99;100.00
12172;BME280;6149;52.418;13.668;2023-02-21T02:30:49;100613.47;;;9.17;100.00
12172;BME280;6149;52.418;13.668;2023-02-21T02:34:08;100617.13;;;9.15;100.00
12172;BME280;6149;52.418;13.668;2023-02-21T02:36:56;100607.84;;;9.25;100.00
12172;BME280;6149;52.418;13.668;2023-02-21T02:39:34;100614.75;;;9.27;100.00
12172;BME280;6149;52.418;13.668;2023-02-21T02:42:11;100628.63;;;9.31;100.00
12172;BME280;6149;52.418;13.668;2023-02-21T02:44:51;100630.50;;;9.29;100.00
12172;BME280;6149;52.418;13.668;2023-02-21T02:47:23;100605.53;;;9.36;100.00
12172;BME280;6149;52.418;13.668;2023-02-21T02:49:56;100611.28;;;9.44;100.00
12172;BME280;6149;52.418;13.668;2023-02-21T02:52:24;100615.16;;;9.37;100.00
12172;BME280;6149;52.418;13.668;2023-02-21T02:54:58;100618.44;;;9.42;100.00
12172;BME280;6149;52.418;13.668;2023-02-21T02:57:28;100614.78;;;9.45;100.00
12172;BME280;6149;52.418;13.668;2023-02-21T03:00:03;100612.88;;;9.48;100.00
12172;BME280;6149;52.418;13.668;2023-02-21T03:02:39;100633.41;;;9.42;100.00
12172;BME280;6149;52.418;13.668;2023-02-21T03:05:35;100613.66;;;9.50;100.00
12172;BME280;6149;52.418;13.668;2023-02-21T03:08:13;100618.13;;;9.48;100.00
12172;BME280;6149;52.418;13.668;2023-02-21T03:10:51;100617.34;;;9.46;100.00
12172;BME280;6149;52.418;13.668;2023-02-21T03:13:28;100618.69;;;9.55;100.00
12172;BME280;6149;52.418;13.668;2023-02-21T03:16:05;100614.56;;;9.49;100.00
12172;BME280;6149;52.418;13.668;2023-02-21T03:18:39;100607.50;;;9.50;100.00
12172;BME280;6149;52.418;13.668;2023-02-21T03:21:13;100604.88;;;9.50;100.00
12172;BME280;6149;52.418;13.668;2023-02-21T03:23:44;100600.59;;;9.47;100.00
12172;BME280;6149;52.418;13.668;2023-02-21T03:26:14;100601.53;;;9.46;100.00
12172;BME280;6149;52.418;13.668;2023-02-21T03:28:42;100601.53;;;9.46;100.00
12172;BME280;6149;52.418;13.668;2023-02-21T03:31:12;100607.44;;;9.51;100.00
12172;BME280;6149;52.418;13.668;2023-02-21T03:33:39;100614.13;;;9.58;100.00
12172;BME280;6149;52.418;13.668;2023-02-21T03:36:07;100614.28;;;9.55;100.00
12172;BME280;6149;52.418;13.668;2023-02-21T03:38:36;100615.28;;;9.53;100.00
12172;BME280;6149;52.418;13.668;2023-02-21T03:41:03;100613.06;;;9.62;100.00
12172;BME280;6149;52.418;13.668;2023-02-21T03:43:29;100614.06;;;9.60;100.00
12172;BME280;6149;52.418;13.668;2023-02-21T03:45:56;100617.47;;;9.62;100.00
12172;BME280;6149;52.418;13.668;2023-02-21T03:48:22;100611.34;;;9.61;100.00
12172;BME280;6149;52.418;13.668;2023-02-21T03:50:49;100612.66;;;9.70;100.00
12172;BME280;6149;52.418;13.668;2023-02-21T03:53:17;100620.56;;;9.70;100.00
12172;BME280;6149;52.418;13.668;2023-02-21T03:55:43;100638.44;;;9.65;100.00
12172;BME280;6149;52.418;13.668;2023-02-21T03:58:10;100627.13;;;9.63;100.00
12172;BME280;6149;52.418;13.668;2023-02-21T04:00:36;100636.56;;;9.67;100.00
12172;BME280;6149;52.418;13.668;2023-02-21T04:03:03;100622.69;;;9.63;100.00
12172;BME280;6149;52.418;13.668;2023-02-21T04:05:30;100626.72;;;9.70;100.00
12172;BME280;6149;52.418;13.668;2023-02-21T04:07:56;100637.13;;;9.73;100.00
12172;BME280;6149;52.418;13.668;2023-02-21T04:10:24;100630.13;;;9.72;100.00
12172;BME280;6149;52.418;13.668;2023-02-21T04:12:50;100631.06;;;9.71;100.00
12172;BME280;6149;52.418;13.668;2023-02-21T04:15:17;100643.41;;;9.71;100.00
12172;BME280;6149;52.418;13.668;2023-02-21T04:17:43;100647.47;;;9.78;100.00
12172;BME280;6149;52.418;13.668;2023-02-21T04:20:10;100652.66;;;9.80;100.00
12172;BME280;6149;52.418;13.668;2023-02-21T04:22:37;100646.59;;;9.78;100.00
12172;BME280;6149;52.418;13.668;2023-02-21T04:25:05;100647.47;;;9.78;100.00
12172;BME280;6149;52.418;13.668;2023-02-21T04:27:33;100649.47;;;9.73;100.00
12172;BME280;6149;52.418;13.668;2023-02-21T04:29:59;100656.53;;;9.72;100.00
12172;BME280;6149;52.418;13.668;2023-02-21T04:32:26;100642.88;;;9.82;100.00
12172;BME280;6149;52.418;13.668;2023-02-21T04:34:53;100645.53;;;9.82;100.00
12172;BME280;6149;52.418;13.668;2023-02-21T04:37:19;100645.38;;;9.85;100.00
12172;BME280;6149;52.418;13.668;2023-02-21T04:39:46;100642.03;;;9.81;100.00
12172;BME280;6149;52.418;13.668;2023-02-21T04:42:13;100648.16;;;9.82;100.00
12172;BME280;6149;52.418;13.668;2023-02-21T04:44:41;100654.94;;;9.87;100.00
12172;BME280;6149;52.418;13.668;2023-02-21T04:47:07;100650.97;;;9.79;100.00
12172;BME280;6149;52.418;13.668;2023-02-21T04:49:34;100641.31;;;9.78;100.00
12172;BME280;6149;52.418;13.668;2023-02-21T04:52:01;100655.31;;;9.80;100.00
12172;BME280;6149;52.418;13.668;2023-02-21T04:54:27;100648.94;;;9.84;100.00
12172;BME280;6149;52.418;13.668;2023-02-21T04:56:54;100641.50;;;9.92;100.00
12172;BME280;6149;52.418;13.668;2023-02-21T04:59:20;100650.59;;;9.86;100.00
12172;BME280;6149;52.418;13.668;2023-02-21T05:01:48;100652.81;;;9.77;100.00
12172;BME280;6149;52.418;13.668;2023-02-21T05:04:14;100649.09;;;9.81;100.00
12172;BME280;6149;52.418;13.668;2023-02-21T05:06:41;100656.47;;;9.74;100.00
12172;BME280;6149;52.418;13.668;2023-02-21T05:09:07;100656.25;;;9.79;100.00
12172;BME280;6149;52.418;13.668;2023-02-21T05:11:34;100658.47;;;9.69;100.00
12172;BME280;6149;52.418;13.668;2023-02-21T05:14:01;100656.75;;;9.68;100.00
12172;BME280;6149;52.418;13.668;2023-02-21T05:16:27;100655.59;;;9.56;100.00
12172;BME280;6149;52.418;13.668;2023-02-21T05:18:55;100657.50;;;9.53;100.00
12172;BME280;6149;52.418;13.668;2023-02-21T05:21:22;100655.66;;;9.55;100.00
12172;BME280;6149;52.418;13.668;2023-02-21T05:23:50;100656.31;;;9.41;100.00
12172;BME280;6149;52.418;13.668;2023-02-21T05:26:25;100657.09;;;9.43;100.00
12172;BME280;6149;52.418;13.668;2023-02-21T05:28:55;100655.81;;;9.33;100.00
12172;BME280;6149;52.418;13.668;2023-02-21T05:31:22;100663.13;;;9.28;100.00
12172;BME280;6149;52.418;13.668;2023-02-21T05:33:51;100665.56;;;9.31;100.00
12172;BME280;6149;52.418;13.668;2023-02-21T05:36:19;100659.88;;;9.40;100.00
12172;BME280;6149;52.418;13.668;2023-02-21T05:38:50;100666.50;;;9.30;100.00
12172;BME280;6149;52.418;13.668;2023-02-21T05:41:19;100664.44;;;9.36;100.00
12172;BME280;6149;52.418;13.668;2023-02-21T05:43:48;100667.53;;;9.27;100.00
12172;BME280;6149;52.418;13.668;2023-02-21T05:46:19;100675.53;;;9.26;100.00
12172;BME280;6149;52.418;13.668;2023-02-21T05:48:48;100674.81;;;9.22;100.00
12172;BME280;6149;52.418;13.668;2023-02-21T05:51:15;100662.88;;;9.32;100.00
12172;BME280;6149;52.418;13.668;2023-02-21T05:53:44;100672.09;;;9.24;100.00
12172;BME280;6149;52.418;13.668;2023-02-21T05:56:11;100677.31;;;9.25;100.00
12172;BME280;6149;52.418;13.668;2023-02-21T05:58:39;100683.78;;;9.18;100.00
12172;BME280;6149;52.418;13.668;2023-02-21T06:01:06;100684.63;;;9.19;100.00
12172;BME280;6149;52.418;13.668;2023-02-21T06:03:33;100677.94;;;9.12;100.00
12172;BME280;6149;52.418;13.668;2023-02-21T06:05:59;100675.72;;;9.21;100.00
12172;BME280;6149;52.418;13.668;2023-02-21T06:08:26;100684.84;;;9.14;100.00
12172;BME280;6149;52.418;13.668;2023-02-21T06:10:54;100686.63;;;9.14;100.00
12172;BME280;6149;52.418;13.668;2023-02-21T06:13:21;100693.63;;;9.15;100.00
12172;BME280;6149;52.418;13.668;2023-02-21T06:15:47;100695.41;;;9.14;100.00
12172;BME280;6149;52.418;13.668;2023-02-21T06:18:14;100715.84;;;9.09;100.00
12172;BME280;6149;52.418;13.668;2023-02-21T06:20:43;100717.34;;;9.15;100.00
12172;BME280;6149;52.418;13.668;2023-02-21T06:23:09;100714.66;;;9.16;100.00
12172;BME280;6149;52.418;13.668;2023-02-21T06:25:36;100720.19;;;9.10;100.00
12172;BME280;6149;52.418;13.668;2023-02-21T06:28:04;100716.63;;;9.11;100.00
12172;BME280;6149;52.418;13.668;2023-02-21T06:30:31;100722.25;;;9.03;100.00
12172;BME280;6149;52.418;13.668;2023-02-21T06:32:57;100730.09;;;9.05;100.00
12172;BME280;6149;52.418;13.668;2023-02-21T06:35:24;100728.38;;;9.04;100.00
12172;BME280;6149;52.418;13.668;2023-02-21T06:37:50;100731.03;;;9.04;100.00
12172;BME280;6149;52.418;13.668;2023-02-21T06:40:17;100732.81;;;9.03;100.00
12172;BME280;6149;52.418;13.668;2023-02-21T06:42:43;100736.44;;;9.01;100.00
12172;BME280;6149;52.418;13.668;2023-02-21T06:45:11;100741.06;;;8.96;100.00
12172;BME280;6149;52.418;13.668;2023-02-21T06:47:37;100742.50;;;9.03;100.00
12172;BME280;6149;52.418;13.668;2023-02-21T06:50:05;100755.47;;;9.08;100.00
12172;BME280;6149;52.418;13.668;2023-02-21T06:52:31;100742.44;;;9.04;100.00
12172;BME280;6149;52.418;13.668;2023-02-21T06:54:58;100762.88;;;8.99;100.00
12172;BME280;6149;52.418;13.668;2023-02-21T06:57:24;100767.09;;;9.03;100.00
12172;BME280;6149;52.418;13.668;2023-02-21T06:59:51;100775.72;;;9.07;100.00
12172;BME280;6149;52.418;13.668;2023-02-21T07:02:19;100781.19;;;9.02;100.00
12172;BME280;6149;52.418;13.668;2023-02-21T07:04:46;100780.09;;;9.08;100.00
12172;BME280;6149;52.418;13.668;2023-02-21T07:07:13;100780.16;;;9.07;100.00
12172;BME280;6149;52.418;13.668;2023-02-21T07:09:40;100772.91;;;9.12;100.00
12172;BME280;6149;52.418;13.668;2023-02-21T07:12:07;100770.59;;;9.04;100.00
12172;BME280;6149;52.418;13.668;2023-02-21T07:14:34;100789.78;;;9.08;100.00
12172;BME280;6149;52.418;13.668;2023-02-21T07:17:00;100784.44;;;9.09;100.00
12172;BME280;6149;52.418;13.668;2023-02-21T07:19:28;100791.56;;;9.07;100.00
12172;BME280;6149;52.418;13.668;2023-02-21T07:21:55;100800.31;;;9.08;100.00
12172;BME280;6149;52.418;13.668;2023-02-21T07:24:21;100805.53;;;9.09;100.00
12172;BME280;6149;52.418;13.668;2023-02-21T07:26:48;100803.69;;;9.11;100.00
12172;BME280;6149;52.418;13.668;2023-02-21T07:29:15;100817.66;;;9.13;100.00
12172;BME280;6149;52.418;13.668;2023-02-21T07:31:42;100813.50;;;9.08;100.00
12172;BME280;6149;52.418;13.668;2023-02-21T07:34:09;100821.63;;;9.03;100.00
12172;BME280;6149;52.418;13.668;2023-02-21T07:36:37;100819.84;;;9.03;100.00
12172;BME280;6149;52.418;13.668;2023-02-21T07:39:04;100819.84;;;9.03;100.00
12172;BME280;6149;52.418;13.668;2023-02-21T07:41:30;100823.34;;;9.04;100.00
12172;BME280;6149;52.418;13.668;2023-02-21T07:43:57;100826.97;;;9.01;100.00
12172;BME280;6149;52.418;13.668;2023-02-21T07:46:26;100825.25;;;9.00;100.00
12172;BME280;6149;52.418;13.668;2023-02-21T07:48:53;100831.44;;;8.99;100.00
12172;BME280;6149;52.418;13.668;2023-02-21T07:51:20;100826.31;;;9.17;100.00
12172;BME280;6149;52.418;13.668;2023-02-21T07:53:48;100822.22;;;9.10;100.00
12172;BME280;6149;52.418;13.668;2023-02-21T07:56:14;100843.44;;;9.07;100.00
12172;BME280;6149;52.418;13.668;2023-02-21T07:58:41;100847.75;;;9.09;100.00
12172;BME280;6149;52.418;13.668;2023-02-21T08:01:07;100850.38;;;9.09;100.00
12172;BME280;6149;52.418;13.668;2023-02-21T08:03:34;100857.31;;;9.12;100.00
12172;BME280;6149;52.418;13.668;2023-02-21T08:06:02;100851.72;;;9.19;100.00
12172;BME280;6149;52.418;13.668;2023-02-21T08:08:29;100858.03;;;9.15;100.00
12172;BME280;6149;52.418;13.668;2023-02-21T08:10:57;100845.91;;;9.11;100.00
12172;BME280;6149;52.418;13.668;2023-02-21T08:13:24;100852.09;;;9.10;100.00
12172;BME280;6149;52.418;13.668;2023-02-21T08:15:50;100856.78;;;9.24;100.00
12172;BME280;6149;52.418;13.668;2023-02-21T08:18:19;100864.84;;;9.21;100.00
12172;BME280;6149;52.418;13.668;2023-02-21T08:20:48;100871.16;;;9.17;100.00
12172;BME280;6149;52.418;13.668;2023-02-21T08:23:15;100870.19;;;9.19;100.00
12172;BME280;6149;52.418;13.668;2023-02-21T08:25:42;100874.41;;;9.23;100.00
12172;BME280;6149;52.418;13.668;2023-02-21T08:28:11;100870.91;;;9.23;100.00
12172;BME280;6149;52.418;13.668;2023-02-21T08:30:38;100875.31;;;9.22;100.00
12172;BME280;6149;52.418;13.668;2023-02-21T08:33:05;100873.13;;;9.32;100.00
12172;BME280;6149;52.418;13.668;2023-02-21T08:35:31;100875.63;;;9.35;100.00
12172;BME280;6149;52.418;13.668;2023-02-21T08:37:58;100882.88;;;9.30;100.00
12172;BME280;6149;52.418;13.668;2023-02-21T08:40:27;100881.81;;;9.34;100.00
12172;BME280;6149;52.418;13.668;2023-02-21T08:42:54;100888.75;;;9.36;100.00
12172;BME280;6149;52.418;13.668;2023-02-21T08:45:25;100888.22;;;9.49;100.00
12172;BME280;6149;52.418;13.668;2023-02-21T08:47:53;100888.28;;;9.47;100.00
12172;BME280;6149;52.418;13.668;2023-02-21T08:50:21;100887.03;;;9.56;100.00
12172;BME280;6149;52.418;13.668;2023-02-21T08:52:49;100896.75;;;9.55;100.00
12172;BME280;6149;52.418;13.668;2023-02-21T08:55:17;100888.75;;;9.57;100.00
12172;BME280;6149;52.418;13.668;2023-02-21T08:57:46;100890.53;;;9.56;100.00
12172;BME280;6149;52.418;13.668;2023-02-21T09:00:14;100898.38;;;9.58;100.00
12172;BME280;6149;52.418;13.668;2023-02-21T09:02:43;100894.38;;;9.68;100.00
12172;BME280;6149;52.418;13.668;2023-02-21T09:05:12;100897.88;;;9.68;100.00
12172;BME280;6149;52.418;13.668;2023-02-21T09:07:40;100897.22;;;9.84;100.00
12172;BME280;6149;52.418;13.668;2023-02-21T09:10:08;100890.16;;;9.84;100.00
12172;BME280;6149;52.418;13.668;2023-02-21T09:12:35;100897.84;;;9.89;100.00
12172;BME280;6149;52.418;13.668;2023-02-21T09:15:02;100892.31;;;9.95;100.00
12172;BME280;6149;52.418;13.668;2023-02-21T09:17:30;100892.72;;;9.86;100.00
12172;BME280;6149;52.418;13.668;2023-02-21T09:19:59;100896.78;;;9.93;100.00
12172;BME280;6149;52.418;13.668;2023-02-21T09:22:26;100898.00;;;10.04;100.00
12172;BME280;6149;52.418;13.668;2023-02-21T09:24:53;100907.69;;;10.04;100.00
12172;BME280;6149;52.418;13.668;2023-02-21T09:27:19;100908.88;;;9.98;100.00
12172;BME280;6149;52.418;13.668;2023-02-21T09:30:01;100911.44;;;10.19;100.00
12172;BME280;6149;52.418;13.668;2023-02-21T09:32:31;100913.34;;;10.15;100.00
12172;BME280;6149;52.418;13.668;2023-02-21T09:34:59;100917.72;;;10.16;100.00
12172;BME280;6149;52.418;13.668;2023-02-21T09:37:26;100912.56;;;10.13;100.00
12172;BME280;6149;52.418;13.668;2023-02-21T09:39:52;100918.50;;;10.18;100.00
12172;BME280;6149;52.418;13.668;2023-02-21T09:42:21;100928.50;;;10.12;100.00
12172;BME280;6149;52.418;13.668;2023-02-21T09:44:50;100930.00;;;10.17;100.00
12172;BME280;6149;52.418;13.668;2023-02-21T09:47:25;100935.50;;;10.13;100.00
12172;BME280;6149;52.418;13.668;2023-02-21T09:49:57;100934.97;;;10.04;100.00
12172;BME280;6149;52.418;13.668;2023-02-21T09:52:30;100934.97;;;10.04;100.00
12172;BME280;6149;52.418;13.668;2023-02-21T09:55:01;100928.69;;;10.07;100.00
12172;BME280;6149;52.418;13.668;2023-02-21T09:57:33;100950.34;;;9.96;100.00
12172;BME280;6149;52.418;13.668;2023-02-21T10:00:00;100940.25;;;10.04;100.00
12172;BME280;6149;52.418;13.668;2023-02-21T10:02:39;100936.06;;;10.00;100.00
12172;BME280;6149;52.418;13.668;2023-02-21T10:05:20;100932.28;;;10.06;100.00
12172;BME280;6149;52.418;13.668;2023-02-21T10:07:58;100935.22;;;10.19;100.00
12172;BME280;6149;52.418;13.668;2023-02-21T10:10:31;100945.34;;;10.29;100.00
12172;BME280;6149;52.418;13.668;2023-02-21T10:13:06;100942.13;;;10.23;100.00
12172;BME280;6149;52.418;13.668;2023-02-21T10:15:41;100945.34;;;10.29;100.00
12172;BME280;6149;52.418;13.668;2023-02-21T10:18:21;100945.53;;;10.25;100.00
12172;BME280;6149;52.418;13.668;2023-02-21T10:20:55;100941.25;;;10.22;100.00
12172;BME280;6149;52.418;13.668;2023-02-21T10:23:32;100951.63;;;10.27;100.00
12172;BME280;6149;52.418;13.668;2023-02-21T10:26:04;100950.47;;;10.32;100.00
12172;BME280;6149;52.418;13.668;2023-02-21T10:28:34;100953.91;;;10.34;100.00
12172;BME280;6149;52.418;13.668;2023-02-21T10:31:05;100947.38;;;10.42;100.00
12172;BME280;6149;52.418;13.668;2023-02-21T10:33:37;100961.88;;;10.52;100.00
12172;BME280;6149;52.418;13.668;2023-02-21T10:36:11;100961.03;;;10.51;100.00
12172;BME280;6149;52.418;13.668;2023-02-21T10:38:40;100961.75;;;10.55;100.00
12172;BME280;6149;52.418;13.668;2023-02-21T10:41:09;100959.59;;;10.63;100.00
12172;BME280;6149;52.418;13.668;2023-02-21T10:43:39;100962.09;;;10.66;100.00
12172;BME280;6149;52.418;13.668;2023-02-21T10:46:13;100961.97;;;10.69;99.80
12172;BME280;6149;52.418;13.668;2023-02-21T10:48:46;100957.47;;;10.71;100.00
12172;BME280;6149;52.418;13.668;2023-02-21T10:51:16;100955.59;;;10.73;97.24
12172;BME280;6149;52.418;13.668;2023-02-21T10:56:44;100957.00;;;10.80;97.92
12172;BME280;6149;52.418;13.668;2023-02-21T10:59:18;100964.94;;;10.80;97.57
12172;BME280;6149;52.418;13.668;2023-02-21T11:01:47;100965.78;;;10.81;97.67
12172;BME280;6149;52.418;13.668;2023-02-21T11:04:27;100972.19;;;10.77;95.73
12172;BME280;6149;52.418;13.668;2023-02-21T11:07:00;100968.50;;;10.79;94.22
12172;BME280;6149;52.418;13.668;2023-02-21T11:09:34;100969.13;;;10.84;92.14
12172;BME280;6149;52.418;13.668;2023-02-21T11:12:06;100976.06;;;10.87;91.88
12172;BME280;6149;52.418;13.668;2023-02-21T11:14:43;100968.69;;;10.93;92.51
12172;BME280;6149;52.418;13.668;2023-02-21T11:17:14;100971.50;;;10.90;91.74
12172;BME280;6149;52.418;13.668;2023-02-21T11:19:45;100978.66;;;10.88;91.73
12172;BME280;6149;52.418;13.668;2023-02-21T11:22:16;100979.00;;;10.81;91.71
12172;BME280;6149;52.418;13.668;2023-02-21T11:24:50;100976.16;;;10.85;90.92
12172;BME280;6149;52.418;13.668;2023-02-21T11:27:31;100966.34;;;10.87;91.44
12172;BME280;6149;52.418;13.668;2023-02-21T11:30:00;100966.06;;;10.93;91.44
12172;BME280;6149;52.418;13.668;2023-02-21T11:32:31;100966.84;;;10.95;93.03
12172;BME280;6149;52.418;13.668;2023-02-21T11:35:01;100972.19;;;10.94;90.10
12172;BME280;6149;52.418;13.668;2023-02-21T11:37:32;100984.84;;;11.06;90.59
12172;BME280;6149;52.418;13.668;2023-02-21T11:39:59;100960.84;;;10.92;89.75
12172;BME280;6149;52.418;13.668;2023-02-21T11:42:28;100977.56;;;10.92;89.41
12172;BME280;6149;52.418;13.668;2023-02-21T11:45:19;100969.00;;;10.87;89.93
12172;BME280;6149;52.418;13.668;2023-02-21T11:47:53;100962.56;;;10.93;90.58
12172;BME280;6149;52.418;13.668;2023-02-21T11:50:27;100959.84;;;10.94;88.60
12172;BME280;6149;52.418;13.668;2023-02-21T11:53:03;100974.00;;;10.93;87.34
12172;BME280;6149;52.418;13.668;2023-02-21T11:55:34;100961.50;;;10.78;88.65
12172;BME280;6149;52.418;13.668;2023-02-21T11:58:15;100985.06;;;10.65;85.61
12172;BME280;6149;52.418;13.668;2023-02-21T12:00:50;100970.91;;;10.66;86.89
12172;BME280;6149;52.418;13.668;2023-02-21T12:03:55;100987.41;;;10.71;87.03
12172;BME280;6149;52.418;13.668;2023-02-21T12:06:35;100974.19;;;10.71;84.49
12172;BME280;6149;52.418;13.668;2023-02-21T12:09:11;100969.69;;;10.74;83.00
12172;BME280;6149;52.418;13.668;2023-02-21T12:11:47;100969.59;;;10.75;84.78
12172;BME280;6149;52.418;13.668;2023-02-21T12:14:32;100971.00;;;10.82;81.96
12172;BME280;6149;52.418;13.668;2023-02-21T12:17:12;100985.56;;;10.74;82.00
12172;BME280;6149;52.418;13.668;2023-02-21T12:20:00;100974.19;;;10.71;81.89
12172;BME280;6149;52.418;13.668;2023-02-21T12:22:45;100981.13;;;10.74;81.00
12172;BME280;6149;52.418;13.668;2023-02-21T12:25:22;100973.25;;;10.73;83.72
12172;BME280;6149;52.418;13.668;2023-02-21T12:28:01;100969.69;;;10.74;82.71
12172;BME280;6149;52.418;13.668;2023-02-21T12:30:43;100970.28;;;10.79;83.25
12172;BME280;6149;52.418;13.668;2023-02-21T12:33:27;100968.91;;;10.89;83.69
12172;BME280;6149;52.418;13.668;2023-02-21T12:36:08;100967.56;;;10.80;79.93
12172;BME280;6149;52.418;13.668;2023-02-21T12:38:53;100975.03;;;10.72;82.06
12172;BME280;6149;52.418;13.668;2023-02-21T12:41:40;100975.91;;;10.73;82.84
12172;BME280;6149;52.418;13.668;2023-02-21T12:44:18;100965.31;;;10.73;83.72
12172;BME280;6149;52.418;13.668;2023-02-21T12:46:51;100973.50;;;10.85;82.86
12172;BME280;6149;52.418;13.668;2023-02-21T12:49:24;100975.22;;;10.86;83.81
12172;BME280;6149;52.418;13.668;2023-02-21T12:51:58;100976.44;;;10.79;83.83
12172;BME280;6149;52.418;13.668;2023-02-21T12:54:37;100970.53;;;10.74;85.77
12172;BME280;6149;52.418;13.668;2023-02-21T12:57:10;100969.97;;;10.67;84.65
12172;BME280;6149;52.418;13.668;2023-02-21T12:59:49;100969.53;;;10.77;86.17
12172;BME280;6149;52.418;13.668;2023-02-21T13:02:25;100965.06;;;10.77;85.02
12172;BME280;6149;52.418;13.668;2023-02-21T13:04:59;100964.56;;;10.88;85.21
12172;BME280;6149;52.418;13.668;2023-02-21T13:07:33;100969.00;;;10.87;87.55
12172;BME280;6149;52.418;13.668;2023-02-21T13:10:06;100962.91;;;10.85;84.26
12172;BME280;6149;52.418;13.668;2023-02-21T13:12:44;100960.91;;;10.90;85.08
12172;BME280;6149;52.418;13.668;2023-02-21T13:15:18;100960.06;;;10.90;82.63
12172;BME280;6149;52.418;13.668;2023-02-21T13:17:51;100960.84;;;10.92;82.26
12172;BME280;6149;52.418;13.668;2023-02-21T13:20:23;100968.13;;;10.87;81.49
12172;BME280;6149;52.418;13.668;2023-02-21T13:22:53;100965.72;;;10.82;82.49
12172;BME280;6149;52.418;13.668;2023-02-21T13:25:51;100965.31;;;10.73;84.75
12172;BME280;6149;52.418;13.668;2023-02-21T13:28:30;100978.63;;;10.71;83.01